Time;durP1;ratioP1;P1;durP2;ratioP2;P2;SDS_P1;SDS_P2;PMS_P1;PMS_P2;Temp;Humidity;BMP_temperature;BMP_pressure;BME280_temperature;BME280_humidity;BME280_pressure;Samples;Min_cycle;Max_cycle;Signal;HPM_P1;HPM_P2
2023/03/29 00:01:06;;;;;;;;;11.75;11.75;;;;;;;;5111044;28;8800;-76
2023/03/29 00:03:32;;;;;;;;;14.00;11.25;;;;;;;;5110558;28;8948;-77
2023/03/29 00:06:04;;;;;;;;;11.00;11.00;;;;;;;;5111277;28;10438;-76
2023/03/29 00:08:30;;;;;;;;;12.00;9.75;;;;;;;;5092615;28;10448;-76
2023/03/29 00:10:57;;;;;;;;;8.75;8.75;;;;;;;;5090104;28;10642;-76
2023/03/29 00:13:23;;;;;;;;;9.50;9.50;;;;;;;;5090595;28;10537;-76
2023/03/29 00:15:48;;;;;;;;;12.50;9.00;;;;;;;;5090705;28;11153;-76
2023/03/29 00:18:13;;;;;;;;;9.50;8.75;;;;;;;;5090123;28;8779;-76
2023/03/29 00:20:38;;;;;;;;;35.25;32.50;;;;;;;;5090334;28;8799;-77
2023/03/29 00:23:04;;;;;;;;;15.00;12.75;;;;;;;;5090579;28;8849;-76
2023/03/29 00:25:29;;;;;;;;;12.75;12.75;;;;;;;;5090300;28;8763;-76
2023/03/29 00:27:54;;;;;;;;;11.00;9.00;;;;;;;;5105659;28;8801;-76
2023/03/29 00:30:20;;;;;;;;;10.25;8.50;;;;;;;;5110967;28;8793;-76
2023/03/29 00:32:45;;;;;;;;;8.50;8.00;;;;;;;;5110830;28;8792;-76
2023/03/29 00:35:11;;;;;;;;;10.25;9.00;;;;;;;;5110781;28;9552;-76
2023/03/29 00:37:36;;;;;;;;;9.75;8.25;;;;;;;;5110716;28;8776;-77
2023/03/29 00:40:06;;;;;;;;;7.25;7.25;;;;;;;;5110711;28;8884;-77
2023/03/29 00:42:33;;;;;;;;;8.75;8.00;;;;;;;;5109938;28;9529;-77
2023/03/29 00:45:10;;;;;;;;;11.75;11.25;;;;;;;;5110619;28;10346;-77
2023/03/29 00:47:35;;;;;;;;;9.75;9.75;;;;;;;;5110254;28;8781;-77
2023/03/29 00:50:07;;;;;;;;;9.00;9.00;;;;;;;;5110736;28;10424;-76
2023/03/29 00:52:33;;;;;;;;;12.00;11.00;;;;;;;;5112127;28;8785;-77
2023/03/29 00:55:02;;;;;;;;;11.50;10.50;;;;;;;;5113790;28;10307;-77
2023/03/29 00:57:29;;;;;;;;;12.25;11.75;;;;;;;;5113969;28;10344;-76
2023/03/29 00:59:55;;;;;;;;;13.00;12.25;;;;;;;;5113840;28;10406;-76
2023/03/29 01:02:24;;;;;;;;;9.00;9.00;;;;;;;;5113827;28;10342;-76
2023/03/29 01:04:59;;;;;;;;;9.75;9.00;;;;;;;;5113781;28;10327;-77
2023/03/29 01:07:29;;;;;;;;;11.00;10.25;;;;;;;;5095346;28;10261;-76
2023/03/29 01:09:59;;;;;;;;;8.00;8.00;;;;;;;;5095272;28;10545;-76
2023/03/29 01:12:31;;;;;;;;;8.50;8.50;;;;;;;;5098821;28;10565;-77
2023/03/29 01:15:10;;;;;;;;;10.00;9.00;;;;;;;;5100457;28;10298;-76
2023/03/29 01:17:36;;;;;;;;;8.00;8.00;;;;;;;;5113690;28;10305;-76
2023/03/29 01:20:25;;;;;;;;;9.75;8.75;;;;;;;;5113489;28;10251;-76
2023/03/29 01:22:53;;;;;;;;;7.75;7.00;;;;;;;;5082268;28;8822;-77
2023/03/29 01:25:42;;;;;;;;;7.75;7.75;;;;;;;;5113646;28;10186;-77
2023/03/29 01:28:09;;;;;;;;;7.25;7.25;;;;;;;;5099517;28;10179;-77
2023/03/29 01:30:37;;;;;;;;;10.75;10.75;;;;;;;;5113281;28;10272;-76
2023/03/29 01:33:10;;;;;;;;;8.25;8.25;;;;;;;;5113295;28;10272;-77
2023/03/29 01:35:44;;;;;;;;;11.50;10.50;;;;;;;;5113449;28;10309;-76
2023/03/29 01:38:16;;;;;;;;;11.25;11.25;;;;;;;;5112993;28;11182;-76
2023/03/29 01:40:41;;;;;;;;;8.75;8.75;;;;;;;;5113560;28;10332;-76
2023/03/29 01:43:18;;;;;;;;;9.50;9.50;;;;;;;;5114011;28;11341;-76
2023/03/29 01:45:43;;;;;;;;;11.00;10.50;;;;;;;;5114631;28;8837;-76
2023/03/29 01:48:23;;;;;;;;;9.50;8.50;;;;;;;;5115848;28;10430;-77
2023/03/29 01:51:00;;;;;;;;;12.50;9.50;;;;;;;;5114389;28;8800;-76
2023/03/29 01:53:40;;;;;;;;;9.00;9.00;;;;;;;;5114894;28;10319;-77
2023/03/29 01:56:08;;;;;;;;;9.00;8.00;;;;;;;;5113880;28;11087;-77
2023/03/29 01:58:37;;;;;;;;;9.75;8.50;;;;;;;;5112291;28;10454;-76
2023/03/29 02:01:04;;;;;;;;;8.00;8.00;;;;;;;;5112343;28;10245;-76
2023/03/29 02:03:32;;;;;;;;;8.50;8.25;;;;;;;;5111738;28;10277;-76
2023/03/29 02:05:58;;;;;;;;;10.75;9.50;;;;;;;;5112238;28;10168;-76
2023/03/29 02:08:25;;;;;;;;;9.25;9.25;;;;;;;;5112184;28;10465;-76
2023/03/29 02:10:50;;;;;;;;;6.75;6.75;;;;;;;;5112254;28;8805;-75
2023/03/29 02:13:16;;;;;;;;;8.75;8.50;;;;;;;;5112138;28;10298;-75
2023/03/29 02:15:43;;;;;;;;;10.00;9.75;;;;;;;;5112614;28;8773;-76
2023/03/29 02:18:08;;;;;;;;;9.50;9.50;;;;;;;;5112542;28;10329;-76
2023/03/29 02:20:39;;;;;;;;;9.00;9.00;;;;;;;;5094259;28;10187;-76
2023/03/29 02:23:22;;;;;;;;;9.25;9.25;;;;;;;;5112600;28;8881;-75
2023/03/29 02:25:49;;;;;;;;;9.75;9.75;;;;;;;;5112775;28;10239;-76
2023/03/29 02:28:14;;;;;;;;;8.25;8.25;;;;;;;;5112315;28;10239;-76
2023/03/29 02:31:06;;;;;;;;;8.75;8.75;;;;;;;;5093881;28;10440;-76
2023/03/29 02:33:44;;;;;;;;;14.00;12.50;;;;;;;;5029390;28;8797;-76
2023/03/29 02:36:21;;;;;;;;;9.00;9.00;;;;;;;;5029261;28;10546;-76
2023/03/29 02:38:46;;;;;;;;;8.50;7.25;;;;;;;;5029546;28;10439;-76
2023/03/29 02:41:12;;;;;;;;;8.00;8.00;;;;;;;;5029398;28;10500;-76
2023/03/29 02:43:38;;;;;;;;;12.50;10.00;;;;;;;;5029189;28;8845;-76
2023/03/29 02:46:04;;;;;;;;;9.75;9.75;;;;;;;;5029368;28;8778;-76
2023/03/29 02:48:30;;;;;;;;;7.00;7.00;;;;;;;;5029315;28;10495;-75
2023/03/29 02:50:59;;;;;;;;;9.00;9.00;;;;;;;;5012783;28;8793;-76
2023/03/29 02:53:28;;;;;;;;;9.25;9.25;;;;;;;;5029088;28;10412;-76
2023/03/29 02:55:53;;;;;;;;;11.25;9.50;;;;;;;;5028907;28;10430;-76
2023/03/29 02:58:19;;;;;;;;;12.00;10.75;;;;;;;;5012276;28;10299;-76
2023/03/29 03:00:45;;;;;;;;;11.00;8.00;;;;;;;;5029154;28;8923;-77
2023/03/29 03:03:11;;;;;;;;;10.25;9.75;;;;;;;;5012475;28;8817;-75
2023/03/29 03:05:37;;;;;;;;;11.00;10.25;;;;;;;;5012308;28;10617;-76
2023/03/29 03:08:03;;;;;;;;;10.75;10.00;;;;;;;;5029067;28;8789;-76
2023/03/29 03:10:28;;;;;;;;;11.25;9.75;;;;;;;;5076177;28;10540;-77
2023/03/29 03:12:53;;;;;;;;;9.00;9.00;;;;;;;;5092853;28;10509;-76
2023/03/29 03:15:19;;;;;;;;;9.75;9.00;;;;;;;;5091359;28;8852;-76
2023/03/29 03:17:45;;;;;;;;;6.00;6.00;;;;;;;;5091635;28;8795;-77
2023/03/29 03:20:13;;;;;;;;;7.00;5.50;;;;;;;;5091151;28;8825;-77
2023/03/29 03:22:44;;;;;;;;;9.25;7.00;;;;;;;;5091370;28;8775;-75
2023/03/29 03:25:10;;;;;;;;;7.25;7.25;;;;;;;;5091322;28;10165;-76
2023/03/29 03:27:35;;;;;;;;;8.00;8.00;;;;;;;;5090976;28;10380;-76
2023/03/29 03:30:01;;;;;;;;;7.50;6.50;;;;;;;;5091019;28;9584;-76
2023/03/29 03:32:26;;;;;;;;;9.75;8.00;;;;;;;;5091203;28;8806;-77
2023/03/29 03:34:51;;;;;;;;;10.00;8.00;;;;;;;;5097507;28;8872;-76
2023/03/29 03:37:17;;;;;;;;;10.00;9.00;;;;;;;;5111528;28;8800;-75
2023/03/29 03:39:42;;;;;;;;;7.25;7.25;;;;;;;;5111749;28;8780;-76
2023/03/29 03:42:07;;;;;;;;;3.75;3.75;;;;;;;;5111613;28;8789;-76
2023/03/29 03:44:32;;;;;;;;;7.50;7.25;;;;;;;;5093095;28;8828;-76
2023/03/29 03:46:57;;;;;;;;;9.00;7.75;;;;;;;;5111479;28;8789;-76
2023/03/29 03:49:23;;;;;;;;;7.00;7.00;;;;;;;;5111377;28;8805;-75
2023/03/29 03:51:48;;;;;;;;;9.00;9.00;;;;;;;;5111485;28;8800;-77
2023/03/29 03:54:13;;;;;;;;;10.25;10.25;;;;;;;;5111122;28;9552;-76
2023/03/29 03:56:39;;;;;;;;;8.75;8.50;;;;;;;;5111151;28;8757;-76
2023/03/29 03:59:04;;;;;;;;;8.00;8.00;;;;;;;;5111426;28;8800;-76
2023/03/29 04:01:29;;;;;;;;;7.25;7.25;;;;;;;;5111129;28;9610;-76
2023/03/29 04:03:55;;;;;;;;;11.00;8.25;;;;;;;;5111302;28;8850;-76
2023/03/29 04:06:20;;;;;;;;;7.25;7.25;;;;;;;;5111231;28;8784;-76
2023/03/29 04:08:46;;;;;;;;;8.75;6.25;;;;;;;;5111038;28;8773;-77
2023/03/29 04:11:12;;;;;;;;;7.25;7.25;;;;;;;;5105789;28;8794;-77
2023/03/29 04:13:37;;;;;;;;;7.00;6.50;;;;;;;;5090562;28;10288;-76
2023/03/29 04:16:03;;;;;;;;;10.00;10.00;;;;;;;;5090313;28;8806;-77
2023/03/29 04:18:28;;;;;;;;;11.50;11.50;;;;;;;;5093677;28;8813;-76
2023/03/29 04:20:54;;;;;;;;;9.00;9.00;;;;;;;;5111066;28;8886;-76
2023/03/29 04:23:19;;;;;;;;;8.00;8.00;;;;;;;;5110427;28;8939;-76
2023/03/29 04:25:44;;;;;;;;;9.50;7.00;;;;;;;;5110856;28;8894;-76
2023/03/29 04:28:10;;;;;;;;;8.75;8.75;;;;;;;;5113197;28;8817;-76
2023/03/29 04:30:35;;;;;;;;;12.00;10.75;;;;;;;;5114285;28;8800;-76
2023/03/29 04:33:00;;;;;;;;;8.75;8.75;;;;;;;;5114465;28;8908;-76
2023/03/29 04:35:26;;;;;;;;;12.25;9.00;;;;;;;;5114307;28;8799;-76
2023/03/29 04:37:53;;;;;;;;;10.00;9.50;;;;;;;;5114377;28;8819;-75
2023/03/29 04:40:19;;;;;;;;;7.25;6.25;;;;;;;;5114157;28;8789;-76
2023/03/29 04:42:46;;;;;;;;;8.75;8.50;;;;;;;;5114450;28;10285;-75
2023/03/29 04:45:16;;;;;;;;;10.50;8.50;;;;;;;;5114344;28;10156;-76
2023/03/29 04:47:42;;;;;;;;;9.25;7.00;;;;;;;;5114406;28;10309;-75
2023/03/29 04:50:07;;;;;;;;;13.50;11.00;;;;;;;;5114004;28;10326;-76
2023/03/29 04:52:33;;;;;;;;;8.25;7.75;;;;;;;;5114292;28;8776;-76
2023/03/29 04:54:59;;;;;;;;;6.75;6.75;;;;;;;;5114008;28;8799;-76
2023/03/29 04:57:25;;;;;;;;;9.00;8.50;;;;;;;;5113684;28;8773;-75
2023/03/29 04:59:50;;;;;;;;;8.75;8.75;;;;;;;;5114084;28;10462;-76
2023/03/29 05:02:15;;;;;;;;;8.50;8.00;;;;;;;;5113847;28;8937;-76
2023/03/29 05:04:41;;;;;;;;;8.50;8.00;;;;;;;;5114862;28;8874;-76
2023/03/29 05:07:06;;;;;;;;;7.00;5.00;;;;;;;;5115305;28;8807;-76
2023/03/29 05:09:31;;;;;;;;;3.50;3.50;;;;;;;;5115180;28;8877;-75
2023/03/29 05:11:57;;;;;;;;;5.50;5.50;;;;;;;;5104423;28;8902;-76
2023/03/29 05:14:22;;;;;;;;;4.00;4.00;;;;;;;;5096163;28;8795;-75
2023/03/29 05:16:47;;;;;;;;;6.00;5.00;;;;;;;;5113628;28;8812;-76
2023/03/29 05:19:12;;;;;;;;;5.75;3.00;;;;;;;;5113740;28;8881;-76
2023/03/29 05:21:38;;;;;;;;;4.25;4.00;;;;;;;;5113519;28;9655;-76
2023/03/29 05:24:03;;;;;;;;;4.00;2.75;;;;;;;;5113410;28;8824;-76
2023/03/29 05:26:29;;;;;;;;;4.00;4.00;;;;;;;;5094984;28;8796;-76
2023/03/29 05:28:54;;;;;;;;;3.25;3.25;;;;;;;;5113777;28;8801;-76
2023/03/29 05:31:19;;;;;;;;;4.00;4.00;;;;;;;;5113628;28;8878;-76
2023/03/29 05:33:48;;;;;;;;;5.00;3.75;;;;;;;;5113733;28;8886;-76
2023/03/29 05:36:14;;;;;;;;;4.00;2.25;;;;;;;;5113223;28;8769;-76
2023/03/29 05:38:41;;;;;;;;;4.00;3.00;;;;;;;;5112258;28;10101;-76
2023/03/29 05:41:06;;;;;;;;;3.50;3.50;;;;;;;;5113391;28;10166;-76
2023/03/29 05:43:31;;;;;;;;;4.50;4.50;;;;;;;;5113503;28;10229;-77
2023/03/29 05:45:57;;;;;;;;;6.00;4.50;;;;;;;;5113045;28;8911;-76
2023/03/29 05:48:22;;;;;;;;;5.25;4.25;;;;;;;;5112946;28;8808;-76
2023/03/29 05:50:52;;;;;;;;;3.50;3.50;;;;;;;;5113385;28;9673;-76
2023/03/29 05:53:17;;;;;;;;;5.00;4.50;;;;;;;;5113197;28;9602;-76
2023/03/29 05:55:43;;;;;;;;;4.00;4.00;;;;;;;;5113345;28;10036;-76
2023/03/29 05:58:09;;;;;;;;;5.00;4.00;;;;;;;;5112785;28;8793;-76
2023/03/29 06:00:36;;;;;;;;;3.75;3.75;;;;;;;;5112843;28;8827;-76
2023/03/29 06:03:02;;;;;;;;;6.75;5.00;;;;;;;;5113196;28;8796;-76
2023/03/29 06:05:27;;;;;;;;;4.00;4.00;;;;;;;;5112452;28;10215;-76
2023/03/29 06:07:52;;;;;;;;;3.75;3.75;;;;;;;;5112782;28;8793;-76
2023/03/29 06:10:19;;;;;;;;;2.50;2.50;;;;;;;;5112782;28;9532;-76
2023/03/29 06:12:48;;;;;;;;;3.00;3.00;;;;;;;;5112762;28;8809;-75
2023/03/29 06:15:14;;;;;;;;;4.50;4.50;;;;;;;;5112645;28;9956;-76
2023/03/29 06:17:40;;;;;;;;;5.00;3.75;;;;;;;;5112733;28;9949;-76
2023/03/29 06:20:09;;;;;;;;;4.50;4.50;;;;;;;;5112124;28;10166;-75
2023/03/29 06:22:35;;;;;;;;;5.00;5.00;;;;;;;;5112851;28;8849;-75
2023/03/29 06:25:01;;;;;;;;;5.00;3.75;;;;;;;;5113145;28;9958;-75
2023/03/29 06:27:26;;;;;;;;;4.00;4.00;;;;;;;;5112730;28;8813;-75
2023/03/29 06:29:52;;;;;;;;;4.25;4.25;;;;;;;;5112840;28;8785;-75
2023/03/29 06:32:18;;;;;;;;;6.00;5.00;;;;;;;;5112662;28;8788;-75
2023/03/29 06:34:43;;;;;;;;;8.50;6.25;;;;;;;;5112266;28;10111;-75
2023/03/29 06:37:09;;;;;;;;;4.50;4.00;;;;;;;;5112414;28;8789;-75
2023/03/29 06:39:34;;;;;;;;;4.75;4.25;;;;;;;;5112144;28;8848;-75
2023/03/29 06:41:59;;;;;;;;;6.25;6.25;;;;;;;;5112281;28;8827;-76
2023/03/29 06:44:27;;;;;;;;;5.50;5.00;;;;;;;;5112538;28;9049;-76
2023/03/29 06:46:52;;;;;;;;;4.50;4.50;;;;;;;;5112392;28;8777;-76
2023/03/29 06:49:17;;;;;;;;;5.50;5.25;;;;;;;;5093805;28;10049;-76
2023/03/29 06:51:42;;;;;;;;;6.00;6.00;;;;;;;;5093841;28;8820;-76
2023/03/29 06:54:07;;;;;;;;;6.25;5.75;;;;;;;;5112146;28;8819;-76
2023/03/29 06:56:33;;;;;;;;;5.25;3.00;;;;;;;;5112196;28;8785;-75
2023/03/29 06:58:58;;;;;;;;;7.25;6.00;;;;;;;;5111942;28;8832;-76
2023/03/29 07:01:23;;;;;;;;;5.50;5.50;;;;;;;;5112304;28;8812;-75
2023/03/29 07:03:48;;;;;;;;;6.50;5.75;;;;;;;;5111694;28;8820;-76
2023/03/29 07:06:16;;;;;;;;;6.00;6.00;;;;;;;;5112242;28;9528;-76
2023/03/29 07:08:42;;;;;;;;;7.25;5.75;;;;;;;;5111906;28;8866;-76
2023/03/29 07:11:11;;;;;;;;;5.25;5.00;;;;;;;;5107908;28;10058;-75
2023/03/29 07:13:36;;;;;;;;;7.75;6.25;;;;;;;;5091643;28;10117;-76
2023/03/29 07:16:02;;;;;;;;;7.00;5.75;;;;;;;;5106550;28;10974;-76
2023/03/29 07:18:27;;;;;;;;;6.25;6.25;;;;;;;;5111519;28;8796;-76
2023/03/29 07:20:53;;;;;;;;;7.25;6.25;;;;;;;;5112299;28;8785;-76
2023/03/29 07:23:18;;;;;;;;;3.75;3.75;;;;;;;;5093479;28;8998;-75
2023/03/29 07:25:43;;;;;;;;;6.25;5.75;;;;;;;;5093430;28;8784;-76
2023/03/29 07:28:09;;;;;;;;;6.50;6.50;;;;;;;;5111884;28;8793;-76
2023/03/29 07:30:35;;;;;;;;;5.00;5.00;;;;;;;;5111434;28;9287;-76
2023/03/29 07:33:01;;;;;;;;;6.75;5.50;;;;;;;;5110764;28;9954;-76
2023/03/29 07:35:26;;;;;;;;;6.75;6.75;;;;;;;;5111298;28;11450;-76
2023/03/29 07:37:53;;;;;;;;;5.50;5.50;;;;;;;;5111637;28;8772;-76
2023/03/29 07:40:22;;;;;;;;;5.25;4.00;;;;;;;;5111472;28;8804;-76
2023/03/29 07:42:55;;;;;;;;;6.00;5.00;;;;;;;;5111378;28;10038;-76
2023/03/29 07:45:22;;;;;;;;;8.50;6.75;;;;;;;;5092758;28;10059;-76
2023/03/29 07:47:48;;;;;;;;;5.50;4.50;;;;;;;;5092587;28;10015;-76
2023/03/29 07:50:14;;;;;;;;;7.50;4.00;;;;;;;;5093312;28;10123;-76
2023/03/29 07:52:39;;;;;;;;;5.25;5.00;;;;;;;;5111287;28;10299;-76
2023/03/29 07:55:06;;;;;;;;;5.00;5.00;;;;;;;;5111147;28;8785;-76
2023/03/29 07:57:32;;;;;;;;;9.00;7.00;;;;;;;;5111302;28;8899;-76
2023/03/29 07:59:57;;;;;;;;;6.00;4.75;;;;;;;;5092890;28;10245;-75
2023/03/29 08:02:22;;;;;;;;;7.00;7.00;;;;;;;;5112075;28;8809;-76
2023/03/29 08:04:48;;;;;;;;;7.75;5.50;;;;;;;;5114830;28;8886;-75
2023/03/29 08:07:13;;;;;;;;;4.25;4.25;;;;;;;;5114891;28;8789;-76
2023/03/29 08:09:39;;;;;;;;;6.75;5.50;;;;;;;;5114939;28;8788;-76
2023/03/29 08:12:05;;;;;;;;;7.00;5.00;;;;;;;;5084065;28;8905;-76
2023/03/29 08:14:30;;;;;;;;;6.50;5.50;;;;;;;;5094376;28;8799;-75
2023/03/29 08:16:55;;;;;;;;;4.25;4.00;;;;;;;;5076222;28;8799;-76
2023/03/29 08:19:20;;;;;;;;;6.75;5.75;;;;;;;;5086210;28;8824;-76
2023/03/29 08:21:46;;;;;;;;;5.50;5.50;;;;;;;;5115376;28;8903;-76
2023/03/29 08:24:12;;;;;;;;;4.50;4.50;;;;;;;;5115370;28;8793;-76
2023/03/29 08:26:37;;;;;;;;;5.00;4.00;;;;;;;;5116286;28;9917;-76
2023/03/29 08:29:02;;;;;;;;;5.00;5.00;;;;;;;;5098453;28;8801;-76
2023/03/29 08:31:28;;;;;;;;;5.50;5.50;;;;;;;;5115624;28;8781;-76
2023/03/29 08:33:53;;;;;;;;;5.00;4.00;;;;;;;;5115759;28;8895;-76
2023/03/29 08:36:18;;;;;;;;;5.50;4.00;;;;;;;;5114679;28;8785;-75
2023/03/29 08:38:44;;;;;;;;;4.50;4.50;;;;;;;;5114187;28;8919;-76
2023/03/29 08:41:23;;;;;;;;;6.25;6.25;;;;;;;;5114562;28;8893;-75
2023/03/29 08:44:06;;;;;;;;;5.50;4.50;;;;;;;;5114114;28;8812;-75
2023/03/29 08:46:55;;;;;;;;;6.25;5.00;;;;;;;;5114088;28;9780;-76
2023/03/29 08:49:21;;;;;;;;;3.00;3.00;;;;;;;;4994758;28;9926;-76
2023/03/29 08:51:48;;;;;;;;;3.50;3.50;;;;;;;;5011212;28;9862;-76
2023/03/29 08:54:20;;;;;;;;;5.00;4.75;;;;;;;;5010976;28;8852;-76
2023/03/29 08:56:47;;;;;;;;;5.75;5.75;;;;;;;;5011256;28;9731;-76
2023/03/29 08:59:17;;;;;;;;;6.75;6.00;;;;;;;;4994060;28;9993;-76
2023/03/29 09:01:42;;;;;;;;;7.25;6.00;;;;;;;;5011095;28;9668;-75
2023/03/29 09:04:08;;;;;;;;;3.25;3.25;;;;;;;;4994425;28;9789;-76
2023/03/29 09:06:33;;;;;;;;;5.00;5.00;;;;;;;;5011125;28;8805;-76
2023/03/29 09:09:00;;;;;;;;;4.75;4.75;;;;;;;;5010900;28;8848;-76
2023/03/29 09:11:25;;;;;;;;;5.00;4.00;;;;;;;;4993764;28;8880;-75
2023/03/29 09:13:53;;;;;;;;;4.50;3.00;;;;;;;;5009711;28;9695;-76
2023/03/29 09:16:42;;;;;;;;;4.00;4.00;;;;;;;;5010377;28;8806;-76
2023/03/29 09:19:13;;;;;;;;;5.25;3.50;;;;;;;;5010526;28;9749;-75
2023/03/29 09:21:38;;;;;;;;;3.00;3.00;;;;;;;;5010621;28;9737;-76
2023/03/29 09:24:22;;;;;;;;;5.00;3.50;;;;;;;;5009939;28;9701;-76
2023/03/29 09:26:51;;;;;;;;;5.25;3.75;;;;;;;;5080912;28;8796;-76
2023/03/29 09:29:24;;;;;;;;;3.75;3.75;;;;;;;;5095127;28;9802;-76
2023/03/29 09:31:50;;;;;;;;;2.50;2.00;;;;;;;;5095467;28;9720;-76
2023/03/29 09:34:21;;;;;;;;;5.00;4.00;;;;;;;;5095109;28;9682;-76
2023/03/29 09:37:02;;;;;;;;;3.00;2.25;;;;;;;;5113838;28;8809;-76
2023/03/29 09:39:27;;;;;;;;;4.00;3.00;;;;;;;;5095249;28;9652;-76
2023/03/29 09:42:00;;;;;;;;;5.75;4.50;;;;;;;;5113079;28;9665;-76
2023/03/29 09:44:37;;;;;;;;;3.75;3.50;;;;;;;;5113192;28;9601;-75
2023/03/29 09:47:21;;;;;;;;;2.25;2.25;;;;;;;;5095384;28;9713;-75
2023/03/29 09:49:50;;;;;;;;;5.25;3.75;;;;;;;;5113367;28;9618;-75
2023/03/29 09:52:17;;;;;;;;;3.67;2.67;;;;;;;;5095084;28;9820;-74
2023/03/29 09:54:42;;;;;;;;;3.25;3.25;;;;;;;;5113252;28;9480;-75
2023/03/29 09:57:12;;;;;;;;;5.75;3.25;;;;;;;;5112952;28;9641;-75
2023/03/29 09:59:37;;;;;;;;;6.25;2.50;;;;;;;;5113097;28;8773;-74
2023/03/29 10:02:06;;;;;;;;;3.33;2.67;;;;;;;;5113075;28;9631;-76
2023/03/29 10:04:31;;;;;;;;;2.00;2.00;;;;;;;;5112910;28;8809;-76
2023/03/29 10:06:57;;;;;;;;;4.00;2.33;;;;;;;;5113239;28;9562;-77
2023/03/29 10:09:26;;;;;;;;;4.00;4.00;;;;;;;;5112748;28;8850;-74
2023/03/29 10:11:55;;;;;;;;;4.00;4.00;;;;;;;;5102599;28;8880;-74
2023/03/29 10:14:33;;;;;;;;;4.50;2.25;;;;;;;;5092483;28;9457;-74
2023/03/29 10:16:58;;;;;;;;;3.50;2.00;;;;;;;;5076534;28;9573;-74
2023/03/29 10:19:29;;;;;;;;;6.00;3.00;;;;;;;;5095056;28;9657;-73
2023/03/29 10:21:57;;;;;;;;;2.00;2.00;;;;;;;;5112791;28;8791;-74
2023/03/29 10:24:24;;;;;;;;;3.33;2.00;;;;;;;;5110968;28;9429;-74
2023/03/29 10:26:54;;;;;;;;;5.25;3.25;;;;;;;;5109756;28;9482;-74
2023/03/29 10:29:19;;;;;;;;;3.00;2.00;;;;;;;;5111122;28;10367;-74
2023/03/29 10:31:45;;;;;;;;;2.50;2.00;;;;;;;;5112887;28;9419;-74
2023/03/29 10:34:13;;;;;;;;;1.75;1.75;;;;;;;;5112618;28;8820;-76
2023/03/29 10:36:43;;;;;;;;;6.00;2.00;;;;;;;;5108354;28;8791;-76
2023/03/29 10:39:10;;;;;;;;;3.50;3.00;;;;;;;;5080150;28;9599;-76
2023/03/29 10:41:35;;;;;;;;;2.25;2.25;;;;;;;;5111225;28;9535;-76
2023/03/29 10:44:01;;;;;;;;;3.33;3.00;;;;;;;;5105093;28;9581;-72
2023/03/29 10:46:26;;;;;;;;;3.00;3.00;;;;;;;;5093442;28;8804;-72
2023/03/29 10:48:56;;;;;;;;;1.00;1.00;;;;;;;;5111745;28;8842;-72
2023/03/29 10:51:22;;;;;;;;;3.00;2.25;;;;;;;;5111588;28;8781;-72
2023/03/29 10:53:47;;;;;;;;;1.00;1.00;;;;;;;;5111065;28;10422;-72
2023/03/29 10:56:13;;;;;;;;;4.25;2.75;;;;;;;;5109489;28;9602;-72
2023/03/29 10:58:38;;;;;;;;;2.00;2.00;;;;;;;;5109344;28;8914;-72
2023/03/29 11:01:04;;;;;;;;;4.50;3.00;;;;;;;;5109574;28;8773;-72
2023/03/29 11:03:42;;;;;;;;;3.00;3.00;;;;;;;;5111336;28;8789;-72
2023/03/29 11:06:13;;;;;;;;;3.75;3.75;;;;;;;;5102191;28;9542;-72
2023/03/29 11:08:38;;;;;;;;;2.00;2.00;;;;;;;;5111395;28;9502;-72
2023/03/29 11:11:13;;;;;;;;;2.25;2.00;;;;;;;;5108197;28;9510;-71
2023/03/29 11:13:47;;;;;;;;;2.25;1.25;;;;;;;;5077774;28;8795;-71
2023/03/29 11:16:31;;;;;;;;;3.75;3.00;;;;;;;;5111402;28;9607;-71
2023/03/29 11:19:05;;;;;;;;;3.50;2.25;;;;;;;;5111212;28;9664;-71
2023/03/29 11:21:33;;;;;;;;;1.25;1.25;;;;;;;;5111426;28;9581;-71
2023/03/29 11:24:01;;;;;;;;;1.00;1.00;;;;;;;;5111190;28;9476;-71
2023/03/29 11:26:56;;;;;;;;;4.75;2.00;;;;;;;;5089173;28;10310;-71
2023/03/29 11:29:24;;;;;;;;;2.00;2.00;;;;;;;;5074181;28;9769;-72
2023/03/29 11:31:55;;;;;;;;;0.00;0.00;;;;;;;;5104523;27;9485;-72
2023/03/29 11:34:26;;;;;;;;;1.25;1.25;;;;;;;;5107902;28;9462;-72
2023/03/29 11:36:57;;;;;;;;;2.00;2.00;;;;;;;;5109738;28;9490;-72
2023/03/29 11:39:42;;;;;;;;;1.33;1.33;;;;;;;;5106528;28;9487;-72
2023/03/29 11:42:28;;;;;;;;;1.67;1.00;;;;;;;;5090669;28;9509;-72
2023/03/29 11:44:56;;;;;;;;;1.00;1.00;;;;;;;;5091093;28;9500;-72
2023/03/29 11:47:23;;;;;;;;;1.67;1.67;;;;;;;;5091157;28;9461;-71
2023/03/29 11:49:54;;;;;;;;;3.00;1.67;;;;;;;;5091361;28;9572;-72
2023/03/29 11:52:23;;;;;;;;;1.00;1.00;;;;;;;;5110493;28;9405;-72
2023/03/29 11:54:48;;;;;;;;;4.00;2.00;;;;;;;;5111143;28;9422;-72
2023/03/29 11:57:25;;;;;;;;;1.00;1.00;;;;;;;;5111563;28;9473;-72
2023/03/29 11:59:53;;;;;;;;;1.00;1.00;;;;;;;;5111599;28;8789;-72
2023/03/29 12:02:35;;;;;;;;;2.33;1.00;;;;;;;;5111848;28;9550;-72
2023/03/29 12:05:04;;;;;;;;;3.00;1.67;;;;;;;;5092943;28;9431;-72
2023/03/29 12:07:38;;;;;;;;;2.00;2.00;;;;;;;;5110867;28;9670;-72
2023/03/29 12:10:20;;;;;;;;;0.75;0.75;;;;;;;;5092660;28;9645;-72
2023/03/29 12:12:50;;;;;;;;;2.00;2.00;;;;;;;;5074894;28;9718;-72
2023/03/29 12:15:21;;;;;;;;;1.00;1.00;;;;;;;;5090931;28;9687;-73
2023/03/29 12:17:55;;;;;;;;;1.25;1.25;;;;;;;;5090938;28;9569;-73
2023/03/29 12:20:25;;;;;;;;;3.25;2.00;;;;;;;;5090613;28;9673;-73
2023/03/29 12:22:51;;;;;;;;;2.00;2.00;;;;;;;;5097307;28;9807;-73
2023/03/29 12:25:19;;;;;;;;;2.00;2.00;;;;;;;;5110926;28;9752;-73
2023/03/29 12:27:54;;;;;;;;;2.00;1.67;;;;;;;;5111150;28;8769;-74
2023/03/29 12:30:28;;;;;;;;;1.00;1.00;;;;;;;;5110893;28;9500;-73
2023/03/29 12:33:06;;;;;;;;;1.33;1.00;;;;;;;;5110158;28;9422;-73
2023/03/29 12:35:47;;;;;;;;;0.00;0.00;;;;;;;;5110302;28;9408;-73
2023/03/29 12:38:18;;;;;;;;;0.00;0.00;;;;;;;;5110655;28;9458;-73
2023/03/29 12:40:45;;;;;;;;;1.33;1.00;;;;;;;;5110691;28;9489;-74
2023/03/29 12:43:15;;;;;;;;;1.00;1.00;;;;;;;;5110960;28;9451;-73
2023/03/29 12:45:44;;;;;;;;;2.00;1.00;;;;;;;;5110797;28;9409;-73
2023/03/29 12:48:14;;;;;;;;;0.67;0.67;;;;;;;;5111468;28;9458;-73
2023/03/29 12:50:44;;;;;;;;;0.33;0.33;;;;;;;;5113970;28;9389;-73
2023/03/29 12:53:12;;;;;;;;;1.33;1.33;;;;;;;;5113907;28;9392;-74
2023/03/29 12:55:41;;;;;;;;;3.00;3.00;;;;;;;;5113906;28;9546;-73
2023/03/29 12:58:19;;;;;;;;;0.67;0.67;;;;;;;;5114250;28;9720;-74
2023/03/29 13:00:46;;;;;;;;;2.25;1.25;;;;;;;;5114052;28;9472;-73
2023/03/29 13:03:41;;;;;;;;;1.50;1.00;;;;;;;;5113697;28;9563;-73
2023/03/29 13:06:08;;;;;;;;;3.00;1.67;;;;;;;;5010810;28;9510;-73
2023/03/29 13:08:36;;;;;;;;;1.00;1.00;;;;;;;;5011015;28;9528;-73
2023/03/29 13:11:02;;;;;;;;;1.00;1.00;;;;;;;;5011018;28;10433;-73
2023/03/29 13:13:36;;;;;;;;;1.67;1.67;;;;;;;;5011114;28;9454;-73
2023/03/29 13:16:14;;;;;;;;;0.67;0.67;;;;;;;;5010807;28;9525;-73
2023/03/29 13:18:42;;;;;;;;;1.00;1.00;;;;;;;;5011192;28;9457;-73
2023/03/29 13:21:29;;;;;;;;;0.25;0.25;;;;;;;;5010772;28;9502;-73
2023/03/29 13:23:57;;;;;;;;;2.25;2.00;;;;;;;;5010537;28;9693;-73
2023/03/29 13:26:22;;;;;;;;;1.75;1.00;;;;;;;;5010926;28;9521;-73
2023/03/29 13:28:53;;;;;;;;;1.00;1.00;;;;;;;;5010840;28;9687;-73
2023/03/29 13:31:27;;;;;;;;;1.00;1.00;;;;;;;;5010536;28;8912;-73
2023/03/29 13:34:12;;;;;;;;;1.00;1.00;;;;;;;;5010969;28;9511;-73
2023/03/29 13:36:47;;;;;;;;;1.00;1.00;;;;;;;;5010458;28;9423;-73
2023/03/29 13:39:15;;;;;;;;;1.50;1.50;;;;;;;;5010837;28;9649;-73
2023/03/29 13:41:40;;;;;;;;;1.33;1.00;;;;;;;;5026845;28;10225;-73
2023/03/29 13:44:20;;;;;;;;;1.33;1.00;;;;;;;;5113252;28;9456;-73
2023/03/29 13:46:46;;;;;;;;;3.00;2.00;;;;;;;;5113251;28;9564;-73
2023/03/29 13:49:11;;;;;;;;;1.75;1.00;;;;;;;;5113171;28;9579;-73
2023/03/29 13:51:52;;;;;;;;;1.75;1.75;;;;;;;;5113510;28;8874;-73
2023/03/29 13:54:22;;;;;;;;;1.00;1.00;;;;;;;;5113005;28;8784;-73
2023/03/29 13:57:02;;;;;;;;;2.75;2.75;;;;;;;;5113137;28;9398;-73
2023/03/29 13:59:34;;;;;;;;;2.75;1.75;;;;;;;;5093433;28;9723;-73
2023/03/29 14:02:01;;;;;;;;;1.50;1.50;;;;;;;;5113124;28;9939;-73
2023/03/29 14:04:29;;;;;;;;;3.25;2.00;;;;;;;;5113052;28;9643;-73
2023/03/29 14:06:55;;;;;;;;;2.00;2.00;;;;;;;;5113110;28;9627;-73
2023/03/29 14:09:28;;;;;;;;;3.00;2.00;;;;;;;;5112657;28;9555;-73
2023/03/29 14:11:55;;;;;;;;;2.00;2.00;;;;;;;;5102494;28;9544;-73
2023/03/29 14:14:22;;;;;;;;;1.33;1.33;;;;;;;;5092569;28;10414;-73
2023/03/29 14:16:48;;;;;;;;;3.00;3.00;;;;;;;;5074288;28;9498;-73
2023/03/29 14:19:33;;;;;;;;;1.00;1.00;;;;;;;;5102575;28;9689;-73
2023/03/29 14:21:59;;;;;;;;;3.25;2.75;;;;;;;;5112700;28;8765;-73
2023/03/29 14:24:26;;;;;;;;;1.25;1.25;;;;;;;;5112919;28;9688;-73
2023/03/29 14:26:52;;;;;;;;;2.25;2.25;;;;;;;;5112973;28;9537;-73
2023/03/29 14:29:17;;;;;;;;;2.67;2.00;;;;;;;;5112834;28;9528;-73
2023/03/29 14:31:43;;;;;;;;;4.25;2.25;;;;;;;;5112864;28;10176;-73
2023/03/29 14:34:13;;;;;;;;;1.75;1.75;;;;;;;;5112148;28;8842;-73
2023/03/29 14:36:39;;;;;;;;;1.25;1.25;;;;;;;;5112373;28;8800;-73
2023/03/29 14:39:14;;;;;;;;;0.25;0.25;;;;;;;;5112531;28;9568;-73
2023/03/29 14:41:41;;;;;;;;;3.00;1.00;;;;;;;;5112517;28;8768;-73
2023/03/29 14:44:07;;;;;;;;;2.33;1.00;;;;;;;;5112378;28;10242;-73
2023/03/29 14:46:33;;;;;;;;;3.50;2.25;;;;;;;;5112510;28;9545;-73
2023/03/29 14:48:58;;;;;;;;;2.50;2.50;;;;;;;;5112014;28;8796;-73
2023/03/29 14:51:29;;;;;;;;;2.25;2.25;;;;;;;;5112353;28;9589;-73
2023/03/29 14:53:59;;;;;;;;;2.25;2.25;;;;;;;;5112215;28;8893;-74
2023/03/29 14:56:25;;;;;;;;;2.25;2.25;;;;;;;;5094111;28;9650;-73
2023/03/29 14:58:53;;;;;;;;;3.50;2.50;;;;;;;;5112557;28;10459;-72